Time;durP1;ratioP1;P1;durP2;ratioP2;P2;SDS_P1;SDS_P2;PMS_P1;PMS_P2;Temp;Humidity;BMP_temperature;BMP_pressure;BME280_temperature;BME280_humidity;BME280_pressure;Samples;Min_cycle;Max_cycle;Signal;HPM_P1;HPM_P2
2022/12/15 00:39:03;;;;;;;26.50;12.57;;;-7.40;99.90;;;;;;5039856;28;20644;-85
2022/12/15 00:41:28;;;;;;;27.60;13.70;;;-7.40;99.90;;;;;;5020623;28;20276;-84
2022/12/15 00:43:54;;;;;;;27.57;13.53;;;-7.40;99.90;;;;;;5053943;28;20188;-84
2022/12/15 00:50:50;;;;;;;25.38;15.43;;;-7.50;99.90;;;;;;5055027;28;20239;-85
2022/12/15 01:21:56;;;;;;;26.88;13.98;;;-7.60;99.90;;;;;;5053967;28;20647;-84
2022/12/15 01:24:21;;;;;;;23.30;14.97;;;-7.60;99.90;;;;;;5040173;28;20185;-84
2022/12/15 01:26:47;;;;;;;35.37;14.73;;;-7.60;99.90;;;;;;5040562;28;20183;-84
2022/12/15 01:29:12;;;;;;;23.80;15.83;;;-7.60;99.90;;;;;;5040365;28;20691;-84
2022/12/15 01:31:38;;;;;;;33.47;13.83;;;-7.60;99.90;;;;;;5057240;28;20219;-84
2022/12/15 01:34:04;;;;;;;20.00;12.80;;;-7.70;99.90;;;;;;5057270;28;20188;-85
2022/12/15 01:36:29;;;;;;;24.50;14.37;;;-7.70;99.90;;;;;;5057027;28;20543;-84
2022/12/15 01:38:55;;;;;;;27.00;13.53;;;-7.70;99.90;;;;;;5057850;28;20420;-84
2022/12/15 01:41:21;;;;;;;24.10;14.70;;;-7.70;99.90;;;;;;5057060;28;20226;-84
2022/12/15 01:43:47;;;;;;;22.08;13.82;;;-7.80;99.90;;;;;;5056306;28;20412;-85
2022/12/15 01:46:16;;;;;;;23.60;15.30;;;-7.80;99.90;;;;;;5056745;28;20195;-84
2022/12/15 01:48:47;;;;;;;23.83;14.48;;;-7.80;99.90;;;;;;5057695;28;20183;-85
2022/12/15 01:51:27;;;;;;;27.05;14.60;;;-7.80;99.90;;;;;;5057214;28;20224;-84
2022/12/15 01:53:59;;;;;;;30.15;14.25;;;-7.80;99.90;;;;;;5057786;28;20200;-84
2022/12/15 01:56:28;;;;;;;21.45;14.02;;;-7.80;99.90;;;;;;5058070;28;20621;-84
2022/12/15 01:58:56;;;;;;;28.52;15.02;;;-7.80;99.90;;;;;;5057008;28;20181;-84
2022/12/15 02:01:22;;;;;;;26.40;12.57;;;-7.80;99.90;;;;;;5057662;28;20184;-84
2022/12/15 02:03:48;;;;;;;23.50;13.20;;;-7.90;99.90;;;;;;5056343;28;20183;-85
2022/12/15 02:06:15;;;;;;;28.23;13.00;;;-7.90;99.90;;;;;;5039671;28;20201;-84
2022/12/15 02:08:43;;;;;;;26.90;13.07;;;-8.00;99.90;;;;;;5056086;28;20236;-84
2022/12/15 02:11:31;;;;;;;30.52;14.90;;;-8.00;99.90;;;;;;5057461;28;20178;-85
2022/12/15 02:14:01;;;;;;;26.42;13.60;;;-8.00;99.90;;;;;;5056857;28;20177;-84
2022/12/15 02:17:04;;;;;;;26.73;14.82;;;-8.00;99.90;;;;;;5056572;28;20235;-84
2022/12/15 02:19:58;;;;;;;24.15;13.68;;;-8.00;99.90;;;;;;5057787;28;20180;-84
2022/12/15 02:22:41;;;;;;;21.17;13.18;;;-8.00;99.90;;;;;;5056389;28;20177;-84
2022/12/15 02:25:13;;;;;;;31.13;13.48;;;-8.00;99.90;;;;;;5056083;28;20241;-84
2022/12/15 02:27:41;;;;;;;28.88;13.73;;;-8.00;99.90;;;;;;5056195;28;20219;-84
2022/12/15 02:30:21;;;;;;;26.70;13.55;;;-8.00;99.90;;;;;;5057322;28;20227;-84
2022/12/15 02:32:52;;;;;;;23.35;13.95;;;-8.00;99.90;;;;;;5055704;28;20180;-84
2022/12/15 02:35:43;;;;;;;22.48;12.30;;;-8.00;99.90;;;;;;5057379;28;20164;-85
2022/12/15 02:38:09;;;;;;;21.25;12.50;;;-8.10;99.90;;;;;;5056449;28;20544;-84
2022/12/15 02:40:36;;;;;;;20.00;12.27;;;-8.10;99.90;;;;;;5056268;28;20188;-85
2022/12/15 02:43:04;;;;;;;23.65;14.07;;;-8.10;99.90;;;;;;5055758;28;20445;-84
2022/12/15 02:46:00;;;;;;;24.05;14.00;;;-8.10;99.90;;;;;;5055578;28;20669;-84
2022/12/15 02:48:39;;;;;;;25.77;13.30;;;-8.20;99.90;;;;;;5057609;28;20162;-85
2022/12/15 02:51:10;;;;;;;23.20;13.45;;;-8.20;99.90;;;;;;5055919;28;20246;-85
2022/12/15 02:53:45;;;;;;;20.13;12.63;;;-8.20;99.90;;;;;;5057379;28;20169;-85
2022/12/15 02:56:16;;;;;;;22.45;14.55;;;-8.30;99.90;;;;;;5057074;28;20200;-85
2022/12/15 02:58:47;;;;;;;25.63;13.80;;;-8.30;99.90;;;;;;5056728;28;20163;-84
2022/12/15 03:01:50;;;;;;;25.17;14.02;;;-8.30;99.90;;;;;;5055822;28;20181;-84
2022/12/15 03:04:18;;;;;;;25.48;14.57;;;-8.30;99.90;;;;;;5056133;28;20190;-84
2022/12/15 03:06:43;;;;;;;24.50;13.60;;;-8.30;99.90;;;;;;5039209;28;20199;-84
2022/12/15 03:09:09;;;;;;;26.00;14.90;;;-8.30;99.90;;;;;;5055628;28;20228;-84
2022/12/15 03:11:35;;;;;;;22.30;12.77;;;-8.30;99.90;;;;;;5038312;28;20415;-84
2022/12/15 03:14:01;;;;;;;26.40;15.20;;;-8.30;99.90;;;;;;5038677;28;20181;-84
2022/12/15 03:16:27;;;;;;;25.67;14.40;;;-8.30;99.90;;;;;;5055183;28;20232;-84
2022/12/15 03:18:52;;;;;;;27.50;13.67;;;-8.30;99.90;;;;;;5038034;28;20188;-84
2022/12/15 03:21:18;;;;;;;23.43;12.63;;;-8.20;99.90;;;;;;5022346;28;20183;-84
2022/12/15 03:23:44;;;;;;;24.93;14.10;;;-8.20;99.90;;;;;;5038177;28;20287;-85
2022/12/15 03:26:10;;;;;;;30.47;15.33;;;-8.30;99.90;;;;;;5054435;28;20359;-84
2022/12/15 03:28:36;;;;;;;27.70;13.63;;;-8.30;99.90;;;;;;5038453;28;20243;-84
2022/12/15 03:31:02;;;;;;;25.13;13.80;;;-8.30;99.90;;;;;;5037413;28;20606;-84
2022/12/15 03:33:28;;;;;;;20.88;13.27;;;-8.30;99.90;;;;;;5038460;28;20177;-84
2022/12/15 03:35:54;;;;;;;24.73;13.80;;;-8.30;99.90;;;;;;5055982;28;20202;-84
2022/12/15 03:38:19;;;;;;;23.20;13.93;;;-8.30;99.90;;;;;;5054375;28;20188;-84
2022/12/15 03:40:45;;;;;;;25.97;14.27;;;-8.20;99.90;;;;;;5055226;28;20189;-84
2022/12/15 03:43:11;;;;;;;26.10;14.23;;;-8.30;99.90;;;;;;5037737;28;20192;-84
2022/12/15 03:45:36;;;;;;;23.87;13.13;;;-8.30;99.90;;;;;;5053859;28;20195;-84
2022/12/15 03:48:02;;;;;;;20.83;13.23;;;-8.30;99.90;;;;;;5036581;28;20778;-83
2022/12/15 03:50:28;;;;;;;23.57;14.53;;;-8.20;99.90;;;;;;5037269;28;20213;-84
2022/12/15 03:52:57;;;;;;;23.63;13.80;;;-8.20;99.90;;;;;;5054092;28;20181;-85
2022/12/15 03:55:23;;;;;;;25.35;14.82;;;-8.20;99.90;;;;;;5055358;28;20584;-84
2022/12/15 03:57:50;;;;;;;26.10;14.07;;;-8.10;99.90;;;;;;5054096;28;20181;-84
2022/12/15 04:00:17;;;;;;;28.00;14.50;;;-8.10;99.90;;;;;;5037629;28;20632;-84
2022/12/15 04:02:43;;;;;;;30.42;15.00;;;-8.10;99.90;;;;;;5054878;28;20255;-84
2022/12/15 04:05:25;;;;;;;27.40;14.35;;;-8.10;99.90;;;;;;5053999;28;20183;-84
2022/12/15 04:07:51;;;;;;;23.60;14.93;;;-8.10;99.90;;;;;;5053585;28;20285;-84
2022/12/15 04:10:17;;;;;;;27.13;15.70;;;-8.10;99.90;;;;;;5054254;28;20312;-84
2022/12/15 04:12:43;;;;;;;27.10;13.87;;;-8.10;99.90;;;;;;5053724;28;20528;-84
2022/12/15 04:15:09;;;;;;;24.67;12.80;;;-8.10;99.90;;;;;;5053904;28;20228;-84
2022/12/15 04:17:36;;;;;;;19.73;12.70;;;-8.10;99.90;;;;;;5054081;28;20181;-84
2022/12/15 04:20:08;;;;;;;22.83;12.75;;;-8.10;99.90;;;;;;5053557;28;20184;-84
2022/12/15 04:22:45;;;;;;;30.85;12.85;;;-8.10;99.90;;;;;;5054126;28;20191;-84
2022/12/15 05:31:53;;;;;;;22.23;12.32;;;-8.20;99.90;;;;;;5058951;28;20170;-84
2022/12/15 05:34:25;;;;;;;24.83;11.25;;;-8.20;99.90;;;;;;5027798;28;20199;-84
2022/12/15 05:36:54;;;;;;;25.00;13.75;;;-8.30;99.90;;;;;;5058308;28;20190;-84
2022/12/15 05:39:21;;;;;;;29.30;12.10;;;-8.20;99.90;;;;;;5058007;28;20207;-84
2022/12/15 05:41:47;;;;;;;28.40;12.73;;;-8.20;99.90;;;;;;5056285;28;20190;-84
2022/12/15 05:44:13;;;;;;;23.13;13.00;;;-8.20;99.90;;;;;;5057000;28;20177;-84
2022/12/15 05:46:39;;;;;;;19.05;12.30;;;-8.10;99.90;;;;;;5024172;28;20185;-84
2022/12/15 05:49:06;;;;;;;22.43;12.23;;;-8.10;99.90;;;;;;5056705;28;20219;-84
2022/12/15 05:51:32;;;;;;;24.85;14.18;;;-8.10;99.90;;;;;;5057087;28;20518;-84
2022/12/15 05:53:57;;;;;;;19.50;12.30;;;-8.10;99.90;;;;;;5057815;28;20255;-84
2022/12/15 05:56:24;;;;;;;22.53;13.83;;;-8.10;99.90;;;;;;5057090;28;20181;-84
2022/12/15 05:58:50;;;;;;;24.75;14.88;;;-8.10;99.90;;;;;;5058008;28;20286;-84
2022/12/15 06:01:17;;;;;;;23.80;13.90;;;-8.10;99.90;;;;;;5043350;28;20224;-84
2022/12/15 06:03:44;;;;;;;26.65;13.25;;;-8.10;99.90;;;;;;5056939;28;20233;-84
2022/12/15 06:06:11;;;;;;;20.45;11.73;;;-8.10;99.90;;;;;;5056925;28;20188;-84
2022/12/15 06:08:39;;;;;;;22.38;13.70;;;-8.00;99.90;;;;;;5058236;28;20579;-84
2022/12/15 06:11:05;;;;;;;22.92;11.60;;;-8.00;99.90;;;;;;5057834;28;20202;-84
2022/12/15 06:13:35;;;;;;;23.50;12.80;;;-8.00;99.90;;;;;;5039610;28;20238;-85
2022/12/15 06:16:04;;;;;;;26.50;12.77;;;-8.00;99.90;;;;;;5040424;28;20820;-85
2022/12/15 06:18:35;;;;;;;26.80;14.98;;;-8.00;99.90;;;;;;5057661;28;20565;-84
2022/12/15 06:21:13;;;;;;;24.20;14.00;;;-8.00;99.90;;;;;;5056079;28;20226;-85
2022/12/15 06:23:40;;;;;;;22.30;14.15;;;-8.00;99.90;;;;;;5056852;28;20618;-85
2022/12/15 06:26:13;;;;;;;22.88;12.20;;;-8.00;99.90;;;;;;5057472;28;20173;-85
2022/12/15 06:28:39;;;;;;;22.10;13.80;;;-8.10;99.90;;;;;;5056312;28;20168;-84
2022/12/15 06:31:08;;;;;;;24.10;12.43;;;-8.00;99.90;;;;;;5039335;28;20259;-84
2022/12/15 06:33:35;;;;;;;28.23;13.57;;;-8.00;99.90;;;;;;5056144;28;20242;-85
2022/12/15 06:36:11;;;;;;;26.30;14.85;;;-8.00;99.90;;;;;;5056201;28;20572;-85
2022/12/15 06:38:38;;;;;;;24.33;13.95;;;-8.00;99.90;;;;;;5058409;28;20209;-84
2022/12/15 06:41:05;;;;;;;25.13;14.43;;;-8.00;99.90;;;;;;5056866;28;20197;-84
2022/12/15 06:43:32;;;;;;;25.77;13.45;;;-8.00;99.90;;;;;;5056970;28;20197;-85
2022/12/15 06:45:58;;;;;;;48.30;16.40;;;-8.00;99.90;;;;;;5041969;28;20659;-84
2022/12/15 06:48:24;;;;;;;32.05;14.70;;;-8.00;99.90;;;;;;5023218;28;20196;-84
2022/12/15 06:50:50;;;;;;;27.95;16.83;;;-7.90;99.90;;;;;;5039034;28;20220;-84
2022/12/15 06:53:18;;;;;;;41.65;15.93;;;-7.90;99.90;;;;;;5057347;28;20197;-85
2022/12/15 06:55:44;;;;;;;29.38;17.42;;;-7.90;99.90;;;;;;5057299;28;20176;-85
2022/12/15 06:58:13;;;;;;;34.08;17.88;;;-7.90;99.90;;;;;;5056479;28;20991;-85
2022/12/15 07:00:41;;;;;;;44.28;19.40;;;-7.90;99.90;;;;;;5055499;28;20611;-84
2022/12/15 07:03:08;;;;;;;37.05;20.10;;;-7.90;99.90;;;;;;5055154;28;20209;-84
2022/12/15 07:05:34;;;;;;;37.35;19.77;;;-7.90;99.90;;;;;;5055040;28;20215;-84
2022/12/15 07:08:00;;;;;;;31.37;17.07;;;-7.90;99.90;;;;;;5056406;28;20229;-85
2022/12/15 07:10:25;;;;;;;25.93;16.07;;;-7.90;99.90;;;;;;5055532;28;20210;-84
2022/12/15 07:12:51;;;;;;;31.27;16.53;;;-7.80;99.90;;;;;;5056211;28;20194;-84
2022/12/15 07:15:16;;;;;;;27.50;16.37;;;-7.80;99.90;;;;;;5056900;28;20683;-84
2022/12/15 07:17:42;;;;;;;26.30;15.00;;;-7.80;99.90;;;;;;5038765;28;20207;-85
2022/12/15 07:20:08;;;;;;;26.60;15.57;;;-7.80;99.90;;;;;;5054950;28;20181;-85
2022/12/15 07:22:34;;;;;;;25.83;13.90;;;-7.70;99.90;;;;;;5055437;28;20331;-84
2022/12/15 07:24:59;;;;;;;27.87;14.73;;;-7.70;99.90;;;;;;5038622;28;20610;-84
2022/12/15 07:27:25;;;;;;;21.97;14.30;;;-7.70;99.90;;;;;;5055365;28;20412;-84
2022/12/15 07:29:51;;;;;;;27.97;14.83;;;-7.70;99.90;;;;;;5055117;28;20213;-84
2022/12/15 07:32:17;;;;;;;33.27;14.47;;;-7.70;99.90;;;;;;5055310;28;20671;-84
2022/12/15 07:34:43;;;;;;;22.88;13.48;;;-7.80;99.90;;;;;;5056252;28;20178;-84
2022/12/15 07:37:08;;;;;;;30.13;13.53;;;-7.70;99.90;;;;;;5056338;28;20179;-84
2022/12/15 07:39:34;;;;;;;25.83;13.97;;;-7.70;99.90;;;;;;5055192;28;20629;-84
2022/12/15 07:41:59;;;;;;;23.80;12.90;;;-7.70;99.90;;;;;;5038404;28;20188;-84
2022/12/15 07:44:25;;;;;;;31.67;13.90;;;-7.70;99.90;;;;;;5055361;28;20181;-84
2022/12/15 07:46:51;;;;;;;25.00;14.40;;;-7.80;99.90;;;;;;5056943;28;20174;-84
2022/12/15 07:49:17;;;;;;;28.33;14.73;;;-7.80;99.90;;;;;;5055067;28;20223;-84
2022/12/15 07:51:43;;;;;;;22.48;12.32;;;-7.80;99.90;;;;;;5054908;28;20744;-84
2022/12/15 07:54:13;;;;;;;27.20;15.13;;;-7.80;99.90;;;;;;5054455;28;20222;-84
2022/12/15 07:56:39;;;;;;;23.02;13.93;;;-7.80;99.90;;;;;;5056439;28;20177;-84
2022/12/15 07:59:06;;;;;;;21.23;14.15;;;-7.80;99.90;;;;;;5054834;28;20264;-84
2022/12/15 08:01:33;;;;;;;27.20;12.95;;;-7.80;99.90;;;;;;5056398;28;20184;-84
2022/12/15 08:03:59;;;;;;;36.35;14.27;;;-7.70;99.90;;;;;;5055912;28;20174;-84
2022/12/15 08:06:25;;;;;;;21.03;13.30;;;-7.70;99.90;;;;;;5037844;28;20189;-84
2022/12/15 08:08:50;;;;;;;33.70;15.83;;;-7.70;99.90;;;;;;5054142;28;20229;-84
2022/12/15 08:11:17;;;;;;;29.80;14.37;;;-7.60;99.90;;;;;;5055382;28;20213;-84
2022/12/15 08:13:43;;;;;;;24.63;15.65;;;-7.60;99.90;;;;;;5056186;28;20173;-84
2022/12/15 08:16:10;;;;;;;27.00;14.43;;;-7.50;99.90;;;;;;5054534;28;20646;-84
2022/12/15 08:18:35;;;;;;;27.05;16.80;;;-7.50;99.90;;;;;;5038234;28;20604;-84
2022/12/15 08:21:02;;;;;;;31.23;17.97;;;-7.40;99.90;;;;;;5054373;28;20181;-84
2022/12/15 08:23:29;;;;;;;25.10;16.50;;;-7.30;99.90;;;;;;5037997;28;20193;-84
2022/12/15 08:26:01;;;;;;;44.60;16.27;;;-7.30;99.90;;;;;;5055223;28;20212;-85
2022/12/15 08:28:27;;;;;;;29.48;17.05;;;-7.20;99.90;;;;;;5055242;28;20252;-84
2022/12/15 08:30:52;;;;;;;31.17;16.87;;;-7.10;99.90;;;;;;5054482;28;20239;-84
2022/12/15 08:33:18;;;;;;;34.33;16.40;;;-6.90;99.90;;;;;;5054589;28;20547;-84
2022/12/15 08:35:43;;;;;;;33.10;18.90;;;-6.90;99.90;;;;;;5038138;28;20185;-84
2022/12/15 08:38:09;;;;;;;43.17;19.00;;;-6.80;99.90;;;;;;5038938;28;20195;-84
2022/12/15 08:40:34;;;;;;;35.57;18.87;;;-6.60;99.90;;;;;;5038536;28;20188;-84
2022/12/15 08:43:00;;;;;;;33.37;18.10;;;-6.60;99.90;;;;;;5055193;28;20185;-85
2022/12/15 08:45:25;;;;;;;38.10;19.97;;;-6.50;99.90;;;;;;5056135;28;20680;-84
2022/12/15 08:47:51;;;;;;;41.80;20.00;;;-6.40;99.90;;;;;;5055181;28;20189;-84
2022/12/15 08:50:17;;;;;;;38.70;19.17;;;-6.30;99.90;;;;;;5054689;28;20308;-84
2022/12/15 08:52:43;;;;;;;58.40;23.65;;;-6.10;99.90;;;;;;5054791;28;20181;-84
2022/12/15 08:55:10;;;;;;;49.90;23.50;;;-6.10;99.90;;;;;;5053792;28;20645;-84
2022/12/15 08:57:36;;;;;;;52.17;22.45;;;-6.00;99.90;;;;;;5054106;28;20416;-84
2022/12/15 09:00:04;;;;;;;56.15;23.85;;;-5.90;99.90;;;;;;5037545;28;20281;-84
2022/12/15 09:02:30;;;;;;;57.28;25.40;;;-5.80;99.90;;;;;;5055771;28;20176;-84
2022/12/15 09:04:55;;;;;;;55.00;27.17;;;-5.80;99.90;;;;;;5055244;28;20170;-84
2022/12/15 09:07:21;;;;;;;56.83;25.27;;;-5.70;99.90;;;;;;5037063;28;20526;-82
2022/12/15 09:09:46;;;;;;;57.57;27.27;;;-5.60;99.90;;;;;;5055975;28;20249;-82
2022/12/15 09:12:12;;;;;;;50.10;26.37;;;-5.40;99.90;;;;;;5054723;28;20288;-82
2022/12/15 09:14:38;;;;;;;58.50;26.05;;;-5.40;99.90;;;;;;5055819;28;20647;-82
2022/12/15 09:17:04;;;;;;;53.57;24.67;;;-5.30;99.90;;;;;;5055935;28;20265;-82
2022/12/15 09:19:29;;;;;;;64.90;29.20;;;-5.20;99.90;;;;;;5055147;28;20211;-82
2022/12/15 09:21:55;;;;;;;57.30;25.00;;;-5.10;99.90;;;;;;5055244;28;20185;-82
2022/12/15 09:24:21;;;;;;;63.77;25.57;;;-5.00;99.90;;;;;;5054729;28;20178;-81
2022/12/15 09:26:46;;;;;;;53.27;27.20;;;-5.00;99.90;;;;;;5055079;28;20193;-81
2022/12/15 09:29:12;;;;;;;58.83;27.50;;;-4.90;99.90;;;;;;5038159;28;20677;-82
2022/12/15 09:31:38;;;;;;;66.10;31.30;;;-4.80;99.90;;;;;;5055115;28;20192;-82
2022/12/15 09:34:04;;;;;;;70.95;30.75;;;-4.70;99.90;;;;;;5054699;28;20217;-81
2022/12/15 09:36:31;;;;;;;61.87;28.73;;;-4.60;99.90;;;;;;5055518;28;20631;-82
2022/12/15 09:38:57;;;;;;;57.15;26.77;;;-4.50;99.90;;;;;;5055819;28;20172;-82
2022/12/15 09:41:34;;;;;;;48.25;24.27;;;-4.40;99.90;;;;;;5039697;28;20184;-83
2022/12/15 09:44:15;;;;;;;51.97;26.05;;;-4.30;99.90;;;;;;5056546;28;20188;-84
2022/12/15 09:46:47;;;;;;;40.42;24.00;;;-4.30;99.90;;;;;;5059873;28;20169;-84
2022/12/15 09:49:25;;;;;;;37.25;20.60;;;-4.30;99.90;;;;;;5060237;28;20299;-84
2022/12/15 09:52:10;;;;;;;46.45;24.77;;;-4.30;99.90;;;;;;5060806;28;20774;-84
2022/12/15 09:54:36;;;;;;;45.90;23.58;;;-4.20;99.90;;;;;;5060156;28;20175;-84
2022/12/15 09:57:19;;;;;;;47.23;24.43;;;-4.10;99.90;;;;;;5059655;28;20193;-85
2022/12/15 10:00:20;;;;;;;59.08;25.90;;;-3.90;99.90;;;;;;5056496;28;20446;-85
2022/12/15 10:03:10;;;;;;;54.35;27.30;;;-3.70;99.90;;;;;;5038280;28;20200;-85
2022/12/15 10:05:51;;;;;;;64.57;26.90;;;-3.60;99.90;;;;;;5040210;28;20200;-84
2022/12/15 10:08:17;;;;;;;60.95;28.50;;;-3.50;99.90;;;;;;5040430;28;20230;-85
2022/12/15 10:11:23;;;;;;;64.13;29.95;;;-3.40;99.90;;;;;;5040143;28;20233;-84
2022/12/15 10:14:14;;;;;;;71.55;31.38;;;-3.20;99.90;;;;;;5043043;28;20184;-84
2022/12/15 10:17:05;;;;;;;76.22;27.98;;;-3.00;99.90;;;;;;5060276;28;20170;-85
2022/12/15 10:19:44;;;;;;;56.08;27.20;;;-2.80;99.90;;;;;;5040006;28;20192;-85
2022/12/15 10:22:25;;;;;;;53.15;26.60;;;-2.80;99.90;;;;;;5040402;28;20162;-85
2022/12/15 10:24:53;;;;;;;49.97;25.70;;;-2.70;99.90;;;;;;5054762;28;20182;-84
2022/12/15 10:27:32;;;;;;;47.60;25.05;;;-2.70;99.90;;;;;;5039798;28;20189;-85
2022/12/15 10:30:09;;;;;;;50.15;25.52;;;-2.70;99.90;;;;;;5040562;28;20194;-85
2022/12/15 10:32:38;;;;;;;42.17;23.15;;;-2.60;99.90;;;;;;5038984;28;20569;-84
2022/12/15 10:35:22;;;;;;;52.50;22.80;;;-2.40;99.90;;;;;;5039844;28;20189;-85
2022/12/15 10:37:48;;;;;;;42.70;23.50;;;-2.20;99.90;;;;;;5040272;28;20210;-84
2022/12/15 10:40:19;;;;;;;50.23;25.60;;;-2.10;99.90;;;;;;5037461;28;20229;-85
2022/12/15 10:42:48;;;;;;;50.22;24.13;;;-1.80;99.90;;;;;;5037110;28;20181;-85
2022/12/15 10:45:36;;;;;;;45.28;22.83;;;-1.70;99.90;;;;;;5036974;28;20234;-84
2022/12/15 10:48:05;;;;;;;52.47;23.92;;;-1.70;99.90;;;;;;5037071;28;20226;-85
2022/12/15 10:50:32;;;;;;;47.00;25.00;;;-1.80;99.90;;;;;;5038009;28;20216;-84
2022/12/15 10:52:57;;;;;;;53.08;25.05;;;-1.60;99.90;;;;;;5038296;28;20183;-84
2022/12/15 10:55:37;;;;;;;39.57;23.17;;;-1.30;99.90;;;;;;5036288;28;20189;-84
2022/12/15 10:58:14;;;;;;;43.38;23.00;;;-1.00;99.90;;;;;;5036394;28;20427;-84
2022/12/15 11:00:39;;;;;;;46.47;25.08;;;-0.90;99.90;;;;;;5036642;28;20527;-85
2022/12/15 11:03:23;;;;;;;47.03;23.53;;;-0.70;99.90;;;;;;5019449;28;20186;-85
2022/12/15 11:05:55;;;;;;;50.80;25.65;;;-0.60;99.90;;;;;;5038011;28;20178;-84
2022/12/15 11:08:23;;;;;;;55.28;26.52;;;-0.30;99.90;;;;;;5035679;28;20316;-83
2022/12/15 11:14:01;;;;;;;48.90;28.20;;;0.00;99.90;;;;;;5037215;28;20201;-82
2022/12/15 11:16:29;;;;;;;53.90;27.42;;;0.20;99.90;;;;;;5036818;28;20251;-82
2022/12/15 11:19:06;;;;;;;52.65;26.85;;;0.30;99.90;;;;;;5035807;28;20725;-82
2022/12/15 11:21:38;;;;;;;50.08;27.67;;;0.50;99.90;;;;;;5035860;28;20634;-82
2022/12/15 11:24:25;;;;;;;48.40;26.60;;;0.60;99.90;;;;;;5052313;28;20175;-81
2022/12/15 11:27:11;;;;;;;53.03;27.25;;;0.60;99.90;;;;;;5036778;28;20174;-82
2022/12/15 11:29:55;;;;;;;49.28;28.58;;;0.90;99.90;;;;;;5051783;28;20691;-83
2022/12/15 11:32:26;;;;;;;47.10;26.15;;;1.00;99.90;;;;;;5054851;28;20188;-83
2022/12/15 11:34:51;;;;;;;55.10;28.48;;;0.80;99.90;;;;;;5056625;28;20158;-83
2022/12/15 11:37:27;;;;;;;47.67;27.50;;;1.20;99.90;;;;;;5054994;28;20196;-83
2022/12/15 11:40:06;;;;;;;51.05;28.23;;;1.50;99.90;;;;;;5055967;28;20177;-83
2022/12/15 11:42:50;;;;;;;49.45;26.70;;;1.50;99.90;;;;;;5055880;28;20173;-83
2022/12/15 11:45:52;;;;;;;57.92;29.77;;;1.30;99.90;;;;;;5055525;28;20181;-84
2022/12/15 11:48:24;;;;;;;61.42;30.63;;;1.70;99.90;;;;;;5054940;28;20177;-84
2022/12/15 11:50:50;;;;;;;54.72;29.10;;;1.70;99.90;;;;;;5056673;28;20236;-84
2022/12/15 11:53:27;;;;;;;60.80;29.40;;;1.70;99.90;;;;;;5054871;28;20198;-83
2022/12/15 11:56:20;;;;;;;65.07;31.42;;;2.10;99.90;;;;;;5055261;28;20231;-82
2022/12/15 11:59:09;;;;;;;63.67;32.75;;;2.00;99.90;;;;;;5054476;28;20174;-82
2022/12/15 12:01:55;;;;;;;58.20;32.63;;;2.30;99.90;;;;;;5035828;28;20193;-83
2022/12/15 12:05:02;;;;;;;56.55;31.63;;;2.40;99.90;;;;;;5053849;28;20170;-81
2022/12/15 12:07:42;;;;;;;56.25;33.45;;;2.50;99.90;;;;;;5032896;28;20636;-82
2022/12/15 12:10:17;;;;;;;60.53;31.00;;;2.70;99.90;;;;;;5054949;28;20569;-84
2022/12/15 12:12:48;;;;;;;65.70;32.25;;;2.60;99.90;;;;;;5055049;28;20169;-81
2022/12/15 12:15:41;;;;;;;55.33;31.08;;;2.60;99.90;;;;;;5055315;28;20537;-82
2022/12/15 12:18:14;;;;;;;64.90;33.40;;;2.60;99.90;;;;;;5054268;28;20265;-82
2022/12/15 12:20:52;;;;;;;69.10;36.17;;;2.20;99.90;;;;;;5055486;28;20589;-81
2022/12/15 12:23:27;;;;;;;64.55;34.97;;;2.10;99.90;;;;;;5056527;28;20162;-82
2022/12/15 12:26:01;;;;;;;69.82;33.63;;;1.70;99.90;;;;;;5071856;28;20196;-81
2022/12/15 12:28:51;;;;;;;67.55;34.40;;;1.50;99.90;;;;;;5054352;28;20599;-80
2022/12/15 12:31:25;;;;;;;65.38;34.80;;;1.70;99.90;;;;;;5053230;28;20669;-80
2022/12/15 12:33:59;;;;;;;65.30;34.60;;;1.50;99.90;;;;;;5055419;28;20158;-81
2022/12/15 12:36:24;;;;;;;64.40;34.83;;;1.40;99.90;;;;;;5055152;28;20176;-81
2022/12/15 12:38:54;;;;;;;65.90;35.20;;;1.10;99.90;;;;;;5054612;28;20540;-81
2022/12/15 12:41:45;;;;;;;73.03;36.60;;;1.00;99.90;;;;;;5055857;28;20169;-82
2022/12/15 12:44:29;;;;;;;64.35;36.13;;;1.00;99.90;;;;;;5055466;28;20173;-81
2022/12/15 12:46:57;;;;;;;68.13;34.88;;;0.90;99.90;;;;;;5056405;28;20165;-79
2022/12/15 12:49:30;;;;;;;67.18;35.08;;;1.00;99.90;;;;;;5057749;28;20181;-81
2022/12/15 12:51:59;;;;;;;68.03;34.67;;;1.10;99.90;;;;;;5054055;28;20513;-81
2022/12/15 12:54:37;;;;;;;65.68;34.33;;;1.00;99.90;;;;;;5053326;28;20278;-81
2022/12/15 12:57:11;;;;;;;60.95;31.92;;;1.00;99.90;;;;;;5054893;28;20230;-81
2022/12/15 12:59:42;;;;;;;70.20;36.08;;;0.90;99.90;;;;;;5053173;28;20873;-83
2022/12/15 13:02:14;;;;;;;65.40;34.25;;;1.10;99.90;;;;;;5053227;28;20559;-83
2022/12/15 13:05:03;;;;;;;71.93;37.95;;;1.00;99.90;;;;;;5054467;28;20177;-81
2022/12/15 13:07:39;;;;;;;73.13;34.85;;;1.10;99.90;;;;;;5052716;28;20242;-82
2022/12/15 13:10:08;;;;;;;79.22;36.97;;;1.30;99.90;;;;;;5053465;28;20231;-81
2022/12/15 13:12:52;;;;;;;79.97;35.42;;;1.30;99.90;;;;;;5054881;28;20598;-81
2022/12/15 13:15:30;;;;;;;74.82;36.47;;;1.50;99.90;;;;;;5054963;28;20210;-83
2022/12/15 13:18:15;;;;;;;67.65;35.78;;;1.40;99.90;;;;;;5052745;28;20550;-82
2022/12/15 13:20:43;;;;;;;67.35;36.63;;;1.50;99.90;;;;;;5058821;28;20620;-82
2022/12/15 13:23:20;;;;;;;77.13;39.83;;;1.70;99.90;;;;;;5073848;28;20177;-82
2022/12/15 13:25:52;;;;;;;72.43;38.00;;;1.70;99.90;;;;;;5057421;28;20184;-82
2022/12/15 13:28:39;;;;;;;81.38;40.60;;;1.60;99.90;;;;;;5057295;28;20593;-82
2022/12/15 13:31:17;;;;;;;77.53;36.70;;;1.80;99.90;;;;;;5058510;28;20205;-82
2022/12/15 13:33:49;;;;;;;73.25;37.10;;;1.90;99.90;;;;;;5057024;28;20173;-82
2022/12/15 13:36:36;;;;;;;63.85;34.90;;;1.90;99.90;;;;;;5057494;28;20276;-83
2022/12/15 13:39:15;;;;;;;63.83;37.30;;;1.90;99.90;;;;;;5059316;28;20184;-82
2022/12/15 13:41:56;;;;;;;62.88;32.60;;;2.00;99.90;;;;;;5058041;28;20229;-84
2022/12/15 13:44:33;;;;;;;65.30;33.00;;;1.90;99.90;;;;;;5057219;28;20163;-83
2022/12/15 13:47:16;;;;;;;61.35;33.25;;;2.00;99.90;;;;;;5053240;28;20537;-83
2022/12/15 13:49:48;;;;;;;56.50;31.02;;;2.10;99.90;;;;;;5056928;28;20229;-83
2022/12/15 13:52:23;;;;;;;58.95;34.88;;;2.00;99.90;;;;;;5053749;28;20315;-83
2022/12/15 13:54:54;;;;;;;49.88;29.25;;;2.00;99.90;;;;;;5057201;28;20184;-82
2022/12/15 13:57:23;;;;;;;56.35;30.35;;;1.90;99.90;;;;;;5055999;28;20209;-83
2022/12/15 13:59:59;;;;;;;61.90;32.80;;;1.60;99.90;;;;;;5055420;28;20243;-82
2022/12/15 14:02:28;;;;;;;56.92;30.98;;;1.50;99.90;;;;;;5057119;28;20174;-82
2022/12/15 14:05:16;;;;;;;58.20;34.35;;;1.30;99.90;;;;;;5056035;28;20643;-82
2022/12/15 14:07:46;;;;;;;58.63;32.70;;;1.10;99.90;;;;;;5057195;28;20244;-81
2022/12/15 14:10:43;;;;;;;64.03;35.55;;;1.00;99.90;;;;;;5055584;28;20209;-82
2022/12/15 14:13:22;;;;;;;61.38;32.50;;;0.80;99.90;;;;;;5056698;28;20169;-81
2022/12/15 14:16:13;;;;;;;54.28;29.10;;;0.70;99.90;;;;;;5056931;28;20254;-81
2022/12/15 14:18:40;;;;;;;57.15;28.98;;;0.50;99.90;;;;;;5037030;28;20205;-82
2022/12/15 14:21:25;;;;;;;59.83;32.72;;;0.40;99.90;;;;;;5057028;28;20187;-81
2022/12/15 14:23:51;;;;;;;56.85;31.10;;;0.20;99.90;;;;;;5056085;28;20170;-81
2022/12/15 14:26:17;;;;;;;59.77;32.87;;;0.00;99.90;;;;;;5039583;28;20239;-82
2022/12/15 14:28:45;;;;;;;49.37;28.50;;;-0.10;99.90;;;;;;5056857;28;20415;-82
2022/12/15 14:31:18;;;;;;;48.63;26.48;;;-0.30;99.90;;;;;;5035930;28;20461;-82
2022/12/15 14:33:48;;;;;;;45.80;27.30;;;-0.40;99.90;;;;;;5036200;28;20629;-82
2022/12/15 14:36:16;;;;;;;58.05;31.20;;;-0.50;99.90;;;;;;5038306;28;20511;-82
2022/12/15 14:38:52;;;;;;;57.85;29.30;;;-0.50;99.90;;;;;;5039288;28;20205;-81
2022/12/15 14:41:22;;;;;;;47.88;27.13;;;-0.70;99.90;;;;;;5057203;28;20287;-82
2022/12/15 14:43:51;;;;;;;46.40;27.00;;;-0.80;99.90;;;;;;5056640;28;20177;-81
2022/12/15 14:46:20;;;;;;;44.38;24.58;;;-0.80;99.90;;;;;;5055388;28;20269;-82
2022/12/15 14:49:03;;;;;;;45.38;26.73;;;-0.90;99.90;;;;;;5056198;28;20281;-82
2022/12/15 14:51:37;;;;;;;40.25;22.70;;;-1.00;99.90;;;;;;5055471;28;20236;-82
2022/12/15 14:54:02;;;;;;;40.72;24.67;;;-1.10;99.90;;;;;;5055254;28;20188;-82
2022/12/15 14:56:31;;;;;;;42.63;24.40;;;-1.10;99.90;;;;;;5054940;28;20189;-80
2022/12/15 14:59:17;;;;;;;44.30;26.25;;;-1.30;99.90;;;;;;5054994;28;20307;-80
2022/12/15 15:01:52;;;;;;;42.30;25.90;;;-1.40;99.90;;;;;;5057043;28;20216;-80
2022/12/15 15:04:28;;;;;;;46.63;25.83;;;-1.60;99.90;;;;;;5055374;28;20258;-81
2022/12/15 15:06:56;;;;;;;49.35;25.52;;;-1.60;99.90;;;;;;5056943;28;20535;-80
2022/12/15 15:09:23;;;;;;;49.85;27.27;;;-1.70;99.90;;;;;;5056788;28;20252;-81
2022/12/15 15:12:03;;;;;;;47.03;27.60;;;-1.80;99.90;;;;;;5054488;28;20307;-81